Terminal Aerodrome Forecast
Issued by NWS

Home | Current Version | Previous Version | Text Only | Print | Product List | Glossary On
Versions: 1 2 3 4 5 6 7 8 9 10 11
084
FTUS44 KLIX 072321
TAFMSY
TAF
KMSY 072321Z 0800/0824 23005KT P6SM SKC
     FM081000 27009KT P6SM SKC
     FM081500 29013KT P6SM SKC
     FM081800 30017G24KT P6SM SKC=

USA.gov is the U.S. government's official web portal to all federal, state and local government web resources and services.